sensor_id;sensor_type;location;lat;lon;timestamp;P1;durP1;ratioP1;P2;durP2;ratioP2
13445;SDS011;6795;51.232;3.764;2023-05-23T00:01:21;27.83;;;13.20;;
13445;SDS011;6795;51.232;3.764;2023-05-23T00:03:52;16.10;;;8.00;;
13445;SDS011;6795;51.232;3.764;2023-05-23T00:06:22;33.88;;;13.65;;
13445;SDS011;6795;51.232;3.764;2023-05-23T00:08:52;23.95;;;12.63;;
13445;SDS011;6795;51.232;3.764;2023-05-23T00:11:22;23.50;;;11.98;;
13445;SDS011;6795;51.232;3.764;2023-05-23T00:13:52;27.75;;;14.52;;
13445;SDS011;6795;51.232;3.764;2023-05-23T00:16:21;28.25;;;13.27;;
13445;SDS011;6795;51.232;3.764;2023-05-23T00:18:50;36.30;;;17.92;;
13445;SDS011;6795;51.232;3.764;2023-05-23T00:21:19;35.10;;;15.98;;
13445;SDS011;6795;51.232;3.764;2023-05-23T00:23:47;41.35;;;18.65;;
13445;SDS011;6795;51.232;3.764;2023-05-23T00:26:19;23.80;;;11.23;;
13445;SDS011;6795;51.232;3.764;2023-05-23T00:28:51;34.28;;;15.88;;
13445;SDS011;6795;51.232;3.764;2023-05-23T00:31:22;27.52;;;11.77;;
13445;SDS011;6795;51.232;3.764;2023-05-23T00:33:51;27.30;;;14.50;;
13445;SDS011;6795;51.232;3.764;2023-05-23T00:36:20;25.77;;;14.45;;
13445;SDS011;6795;51.232;3.764;2023-05-23T00:38:48;28.67;;;15.63;;
13445;SDS011;6795;51.232;3.764;2023-05-23T00:41:18;25.67;;;15.23;;
13445;SDS011;6795;51.232;3.764;2023-05-23T00:43:47;27.15;;;16.30;;
13445;SDS011;6795;51.232;3.764;2023-05-23T00:46:17;39.00;;;20.65;;
13445;SDS011;6795;51.232;3.764;2023-05-23T00:48:46;41.03;;;20.48;;
13445;SDS011;6795;51.232;3.764;2023-05-23T00:51:15;31.85;;;18.63;;
13445;SDS011;6795;51.232;3.764;2023-05-23T00:53:43;39.30;;;19.58;;
13445;SDS011;6795;51.232;3.764;2023-05-23T00:56:14;32.40;;;17.45;;
13445;SDS011;6795;51.232;3.764;2023-05-23T00:58:42;31.52;;;16.90;;
13445;SDS011;6795;51.232;3.764;2023-05-23T01:01:11;33.60;;;17.30;;
13445;SDS011;6795;51.232;3.764;2023-05-23T01:03:42;24.58;;;14.20;;
13445;SDS011;6795;51.232;3.764;2023-05-23T01:06:14;33.40;;;17.55;;
13445;SDS011;6795;51.232;3.764;2023-05-23T01:08:44;40.85;;;18.48;;
13445;SDS011;6795;51.232;3.764;2023-05-23T01:11:13;42.30;;;17.50;;
13445;SDS011;6795;51.232;3.764;2023-05-23T01:13:46;37.85;;;17.33;;
13445;SDS011;6795;51.232;3.764;2023-05-23T01:16:16;26.25;;;13.95;;
13445;SDS011;6795;51.232;3.764;2023-05-23T01:18:47;32.83;;;13.48;;
13445;SDS011;6795;51.232;3.764;2023-05-23T01:21:20;30.17;;;15.15;;
13445;SDS011;6795;51.232;3.764;2023-05-23T01:23:54;32.25;;;15.23;;
13445;SDS011;6795;51.232;3.764;2023-05-23T01:26:31;27.45;;;14.02;;
13445;SDS011;6795;51.232;3.764;2023-05-23T01:29:06;33.47;;;14.30;;
13445;SDS011;6795;51.232;3.764;2023-05-23T01:31:38;29.55;;;14.15;;
13445;SDS011;6795;51.232;3.764;2023-05-23T01:34:08;19.33;;;11.60;;
13445;SDS011;6795;51.232;3.764;2023-05-23T01:36:39;33.45;;;16.27;;
13445;SDS011;6795;51.232;3.764;2023-05-23T01:39:08;24.15;;;13.23;;
13445;SDS011;6795;51.232;3.764;2023-05-23T01:41:36;29.90;;;14.40;;
13445;SDS011;6795;51.232;3.764;2023-05-23T01:44:06;23.83;;;13.23;;
13445;SDS011;6795;51.232;3.764;2023-05-23T01:46:38;23.17;;;11.50;;
13445;SDS011;6795;51.232;3.764;2023-05-23T01:49:11;23.38;;;10.68;;
13445;SDS011;6795;51.232;3.764;2023-05-23T01:51:41;24.95;;;13.18;;
13445;SDS011;6795;51.232;3.764;2023-05-23T01:54:09;21.10;;;11.38;;
13445;SDS011;6795;51.232;3.764;2023-05-23T01:56:39;29.95;;;13.27;;
13445;SDS011;6795;51.232;3.764;2023-05-23T01:59:10;20.73;;;10.10;;
13445;SDS011;6795;51.232;3.764;2023-05-23T02:01:39;18.33;;;9.82;;
13445;SDS011;6795;51.232;3.764;2023-05-23T02:04:08;16.67;;;8.15;;
13445;SDS011;6795;51.232;3.764;2023-05-23T02:06:36;18.45;;;11.15;;
13445;SDS011;6795;51.232;3.764;2023-05-23T02:09:07;25.42;;;11.63;;
13445;SDS011;6795;51.232;3.764;2023-05-23T02:11:35;27.30;;;11.82;;
13445;SDS011;6795;51.232;3.764;2023-05-23T02:14:04;22.98;;;10.00;;
13445;SDS011;6795;51.232;3.764;2023-05-23T02:16:33;26.05;;;10.10;;
13445;SDS011;6795;51.232;3.764;2023-05-23T02:19:02;19.10;;;10.10;;
13445;SDS011;6795;51.232;3.764;2023-05-23T02:21:31;21.77;;;9.90;;
13445;SDS011;6795;51.232;3.764;2023-05-23T02:24:01;23.55;;;10.73;;
13445;SDS011;6795;51.232;3.764;2023-05-23T02:26:29;21.60;;;9.70;;
13445;SDS011;6795;51.232;3.764;2023-05-23T02:28:58;25.80;;;10.68;;
13445;SDS011;6795;51.232;3.764;2023-05-23T02:31:26;25.83;;;10.55;;
13445;SDS011;6795;51.232;3.764;2023-05-23T02:33:56;28.58;;;11.90;;
13445;SDS011;6795;51.232;3.764;2023-05-23T02:36:25;28.42;;;11.65;;
13445;SDS011;6795;51.232;3.764;2023-05-23T02:38:53;22.70;;;11.30;;
13445;SDS011;6795;51.232;3.764;2023-05-23T02:41:22;25.10;;;10.57;;
13445;SDS011;6795;51.232;3.764;2023-05-23T02:43:50;29.80;;;10.55;;
13445;SDS011;6795;51.232;3.764;2023-05-23T02:46:19;17.38;;;9.90;;
13445;SDS011;6795;51.232;3.764;2023-05-23T02:48:48;23.33;;;10.70;;
13445;SDS011;6795;51.232;3.764;2023-05-23T02:51:18;32.03;;;12.35;;
13445;SDS011;6795;51.232;3.764;2023-05-23T02:53:46;21.27;;;7.88;;
13445;SDS011;6795;51.232;3.764;2023-05-23T02:56:15;19.27;;;9.30;;
13445;SDS011;6795;51.232;3.764;2023-05-23T02:58:44;20.55;;;9.85;;
13445;SDS011;6795;51.232;3.764;2023-05-23T03:01:12;13.20;;;6.38;;
13445;SDS011;6795;51.232;3.764;2023-05-23T03:03:41;22.30;;;9.13;;
13445;SDS011;6795;51.232;3.764;2023-05-23T03:06:10;20.75;;;8.55;;
13445;SDS011;6795;51.232;3.764;2023-05-23T03:08:41;26.52;;;9.35;;
13445;SDS011;6795;51.232;3.764;2023-05-23T03:11:10;18.00;;;9.18;;
13445;SDS011;6795;51.232;3.764;2023-05-23T03:13:41;17.08;;;9.40;;
13445;SDS011;6795;51.232;3.764;2023-05-23T03:16:10;16.13;;;7.97;;
13445;SDS011;6795;51.232;3.764;2023-05-23T03:18:38;28.98;;;8.40;;
13445;SDS011;6795;51.232;3.764;2023-05-23T03:21:08;25.80;;;9.48;;
13445;SDS011;6795;51.232;3.764;2023-05-23T03:23:36;20.58;;;8.60;;
13445;SDS011;6795;51.232;3.764;2023-05-23T03:26:06;24.13;;;9.50;;
13445;SDS011;6795;51.232;3.764;2023-05-23T03:28:35;17.48;;;7.28;;
13445;SDS011;6795;51.232;3.764;2023-05-23T03:31:04;23.40;;;8.43;;
13445;SDS011;6795;51.232;3.764;2023-05-23T03:33:33;26.08;;;8.80;;
13445;SDS011;6795;51.232;3.764;2023-05-23T03:36:05;19.25;;;8.43;;
13445;SDS011;6795;51.232;3.764;2023-05-23T03:38:35;14.35;;;6.03;;
13445;SDS011;6795;51.232;3.764;2023-05-23T03:41:03;17.77;;;7.88;;
13445;SDS011;6795;51.232;3.764;2023-05-23T03:43:33;15.65;;;7.45;;
13445;SDS011;6795;51.232;3.764;2023-05-23T03:46:02;24.02;;;8.50;;
13445;SDS011;6795;51.232;3.764;2023-05-23T03:48:31;12.90;;;6.60;;
13445;SDS011;6795;51.232;3.764;2023-05-23T03:50:59;26.95;;;10.35;;
13445;SDS011;6795;51.232;3.764;2023-05-23T03:53:28;14.07;;;4.82;;
13445;SDS011;6795;51.232;3.764;2023-05-23T03:55:56;16.73;;;7.25;;
13445;SDS011;6795;51.232;3.764;2023-05-23T03:58:25;13.48;;;6.25;;
13445;SDS011;6795;51.232;3.764;2023-05-23T04:00:55;19.92;;;8.77;;
13445;SDS011;6795;51.232;3.764;2023-05-23T04:03:29;14.35;;;6.47;;
13445;SDS011;6795;51.232;3.764;2023-05-23T04:05:59;27.70;;;9.93;;
13445;SDS011;6795;51.232;3.764;2023-05-23T04:08:28;20.55;;;8.10;;
13445;SDS011;6795;51.232;3.764;2023-05-23T04:10:59;23.60;;;8.25;;
13445;SDS011;6795;51.232;3.764;2023-05-23T04:13:28;27.52;;;8.25;;
13445;SDS011;6795;51.232;3.764;2023-05-23T04:15:59;25.77;;;8.15;;
13445;SDS011;6795;51.232;3.764;2023-05-23T04:18:31;17.95;;;6.65;;
13445;SDS011;6795;51.232;3.764;2023-05-23T04:21:00;16.33;;;6.70;;
13445;SDS011;6795;51.232;3.764;2023-05-23T04:23:28;20.48;;;6.15;;
13445;SDS011;6795;51.232;3.764;2023-05-23T04:25:57;21.88;;;6.63;;
13445;SDS011;6795;51.232;3.764;2023-05-23T04:28:25;17.88;;;6.82;;
13445;SDS011;6795;51.232;3.764;2023-05-23T04:30:54;18.95;;;6.65;;
13445;SDS011;6795;51.232;3.764;2023-05-23T04:33:25;20.27;;;6.78;;
13445;SDS011;6795;51.232;3.764;2023-05-23T04:35:56;24.08;;;9.13;;
13445;SDS011;6795;51.232;3.764;2023-05-23T04:38:24;17.08;;;5.85;;
13445;SDS011;6795;51.232;3.764;2023-05-23T04:40:53;15.50;;;5.22;;
13445;SDS011;6795;51.232;3.764;2023-05-23T04:43:22;15.48;;;6.72;;
13445;SDS011;6795;51.232;3.764;2023-05-23T04:45:53;15.10;;;5.45;;
13445;SDS011;6795;51.232;3.764;2023-05-23T04:48:21;16.45;;;6.18;;
13445;SDS011;6795;51.232;3.764;2023-05-23T04:50:51;11.70;;;5.47;;
13445;SDS011;6795;51.232;3.764;2023-05-23T04:53:21;16.15;;;5.68;;
13445;SDS011;6795;51.232;3.764;2023-05-23T04:55:50;8.10;;;4.38;;
13445;SDS011;6795;51.232;3.764;2023-05-23T04:58:18;15.27;;;5.30;;
13445;SDS011;6795;51.232;3.764;2023-05-23T05:00:47;10.90;;;4.32;;
13445;SDS011;6795;51.232;3.764;2023-05-23T05:03:16;9.65;;;3.85;;
13445;SDS011;6795;51.232;3.764;2023-05-23T05:05:44;4.80;;;2.17;;
13445;SDS011;6795;51.232;3.764;2023-05-23T05:08:14;13.32;;;5.20;;
13445;SDS011;6795;51.232;3.764;2023-05-23T05:10:45;10.95;;;4.43;;
13445;SDS011;6795;51.232;3.764;2023-05-23T05:13:14;14.90;;;5.38;;
13445;SDS011;6795;51.232;3.764;2023-05-23T05:15:42;14.88;;;3.83;;
13445;SDS011;6795;51.232;3.764;2023-05-23T05:18:11;16.08;;;5.85;;
13445;SDS011;6795;51.232;3.764;2023-05-23T05:20:40;17.77;;;6.13;;
13445;SDS011;6795;51.232;3.764;2023-05-23T05:23:09;17.23;;;5.65;;
13445;SDS011;6795;51.232;3.764;2023-05-23T05:25:39;17.30;;;6.03;;
13445;SDS011;6795;51.232;3.764;2023-05-23T05:28:08;14.07;;;4.13;;
13445;SDS011;6795;51.232;3.764;2023-05-23T05:30:37;17.08;;;4.95;;
13445;SDS011;6795;51.232;3.764;2023-05-23T05:33:06;12.15;;;4.05;;
13445;SDS011;6795;51.232;3.764;2023-05-23T05:35:36;10.02;;;4.47;;
13445;SDS011;6795;51.232;3.764;2023-05-23T05:38:05;11.63;;;3.55;;
13445;SDS011;6795;51.232;3.764;2023-05-23T05:40:34;12.50;;;3.88;;
13445;SDS011;6795;51.232;3.764;2023-05-23T05:43:04;18.73;;;3.72;;
13445;SDS011;6795;51.232;3.764;2023-05-23T05:45:32;16.80;;;5.10;;
13445;SDS011;6795;51.232;3.764;2023-05-23T05:48:01;13.15;;;3.88;;
13445;SDS011;6795;51.232;3.764;2023-05-23T05:50:30;9.77;;;3.63;;
13445;SDS011;6795;51.232;3.764;2023-05-23T05:52:58;23.98;;;6.57;;
13445;SDS011;6795;51.232;3.764;2023-05-23T05:55:27;10.80;;;4.45;;
13445;SDS011;6795;51.232;3.764;2023-05-23T05:57:56;13.75;;;4.90;;
13445;SDS011;6795;51.232;3.764;2023-05-23T06:00:26;14.25;;;4.53;;
13445;SDS011;6795;51.232;3.764;2023-05-23T06:02:54;16.20;;;4.78;;
13445;SDS011;6795;51.232;3.764;2023-05-23T06:05:23;17.48;;;5.47;;
13445;SDS011;6795;51.232;3.764;2023-05-23T06:07:52;11.05;;;4.50;;
13445;SDS011;6795;51.232;3.764;2023-05-23T06:10:21;16.38;;;5.78;;
13445;SDS011;6795;51.232;3.764;2023-05-23T06:12:50;10.20;;;4.35;;
13445;SDS011;6795;51.232;3.764;2023-05-23T06:15:18;10.05;;;4.20;;
13445;SDS011;6795;51.232;3.764;2023-05-23T06:17:48;9.50;;;4.65;;
13445;SDS011;6795;51.232;3.764;2023-05-23T06:20:20;16.05;;;4.32;;
13445;SDS011;6795;51.232;3.764;2023-05-23T06:22:48;12.27;;;4.05;;
13445;SDS011;6795;51.232;3.764;2023-05-23T06:25:17;14.07;;;3.55;;
13445;SDS011;6795;51.232;3.764;2023-05-23T06:27:46;11.00;;;4.07;;
13445;SDS011;6795;51.232;3.764;2023-05-23T06:30:15;13.95;;;5.20;;
13445;SDS011;6795;51.232;3.764;2023-05-23T06:32:44;15.68;;;4.68;;
13445;SDS011;6795;51.232;3.764;2023-05-23T06:35:14;15.40;;;4.50;;
13445;SDS011;6795;51.232;3.764;2023-05-23T06:37:43;15.35;;;5.38;;
13445;SDS011;6795;51.232;3.764;2023-05-23T06:40:12;16.52;;;5.57;;
13445;SDS011;6795;51.232;3.764;2023-05-23T06:42:41;17.55;;;5.07;;
13445;SDS011;6795;51.232;3.764;2023-05-23T06:45:10;14.45;;;4.82;;
13445;SDS011;6795;51.232;3.764;2023-05-23T06:47:42;20.83;;;3.30;;
13445;SDS011;6795;51.232;3.764;2023-05-23T06:50:11;8.85;;;3.50;;
13445;SDS011;6795;51.232;3.764;2023-05-23T06:52:41;10.38;;;3.50;;
13445;SDS011;6795;51.232;3.764;2023-05-23T06:55:09;6.13;;;2.25;;
13445;SDS011;6795;51.232;3.764;2023-05-23T06:57:41;9.38;;;3.47;;
13445;SDS011;6795;51.232;3.764;2023-05-23T07:00:09;7.78;;;3.35;;
13445;SDS011;6795;51.232;3.764;2023-05-23T07:02:39;7.50;;;2.40;;
13445;SDS011;6795;51.232;3.764;2023-05-23T07:05:08;5.45;;;2.30;;
13445;SDS011;6795;51.232;3.764;2023-05-23T07:07:36;13.02;;;3.17;;
13445;SDS011;6795;51.232;3.764;2023-05-23T07:10:07;9.85;;;2.70;;
13445;SDS011;6795;51.232;3.764;2023-05-23T07:12:36;13.85;;;3.08;;
13445;SDS011;6795;51.232;3.764;2023-05-23T07:15:05;2.28;;;1.08;;
13445;SDS011;6795;51.232;3.764;2023-05-23T07:17:34;5.95;;;1.55;;
13445;SDS011;6795;51.232;3.764;2023-05-23T07:20:03;5.45;;;1.75;;
13445;SDS011;6795;51.232;3.764;2023-05-23T07:22:33;4.65;;;1.70;;
13445;SDS011;6795;51.232;3.764;2023-05-23T07:25:02;4.85;;;1.55;;
13445;SDS011;6795;51.232;3.764;2023-05-23T07:27:32;4.65;;;1.83;;
13445;SDS011;6795;51.232;3.764;2023-05-23T07:30:01;2.58;;;1.02;;
13445;SDS011;6795;51.232;3.764;2023-05-23T07:32:29;3.97;;;1.10;;
13445;SDS011;6795;51.232;3.764;2023-05-23T07:34:58;3.67;;;1.30;;
13445;SDS011;6795;51.232;3.764;2023-05-23T07:37:26;3.00;;;0.90;;
13445;SDS011;6795;51.232;3.764;2023-05-23T07:39:55;3.10;;;0.70;;
13445;SDS011;6795;51.232;3.764;2023-05-23T07:42:23;3.83;;;0.55;;
13445;SDS011;6795;51.232;3.764;2023-05-23T07:44:53;8.30;;;1.23;;
13445;SDS011;6795;51.232;3.764;2023-05-23T07:47:21;4.57;;;0.60;;
13445;SDS011;6795;51.232;3.764;2023-05-23T07:49:50;2.83;;;0.88;;
13445;SDS011;6795;51.232;3.764;2023-05-23T07:52:19;8.07;;;1.45;;
13445;SDS011;6795;51.232;3.764;2023-05-23T07:54:47;5.72;;;1.20;;
13445;SDS011;6795;51.232;3.764;2023-05-23T07:57:15;7.45;;;1.00;;
13445;SDS011;6795;51.232;3.764;2023-05-23T07:59:44;7.28;;;1.23;;
13445;SDS011;6795;51.232;3.764;2023-05-23T08:02:14;6.18;;;1.27;;
13445;SDS011;6795;51.232;3.764;2023-05-23T08:04:42;6.78;;;1.88;;
13445;SDS011;6795;51.232;3.764;2023-05-23T08:07:11;4.90;;;0.95;;
13445;SDS011;6795;51.232;3.764;2023-05-23T08:09:41;5.47;;;0.77;;
13445;SDS011;6795;51.232;3.764;2023-05-23T08:12:09;7.28;;;1.27;;
13445;SDS011;6795;51.232;3.764;2023-05-23T08:14:38;7.03;;;0.70;;
13445;SDS011;6795;51.232;3.764;2023-05-23T08:17:18;6.55;;;0.80;;
13445;SDS011;6795;51.232;3.764;2023-05-23T08:19:47;4.03;;;0.50;;
13445;SDS011;6795;51.232;3.764;2023-05-23T08:22:15;3.78;;;1.05;;
13445;SDS011;6795;51.232;3.764;2023-05-23T08:24:44;3.25;;;1.35;;
13445;SDS011;6795;51.232;3.764;2023-05-23T08:27:12;6.75;;;0.98;;
13445;SDS011;6795;51.232;3.764;2023-05-23T08:29:41;10.07;;;1.00;;
13445;SDS011;6795;51.232;3.764;2023-05-23T08:32:10;9.20;;;1.00;;
13445;SDS011;6795;51.232;3.764;2023-05-23T08:34:40;5.30;;;0.75;;
13445;SDS011;6795;51.232;3.764;2023-05-23T08:37:09;10.43;;;0.93;;
13445;SDS011;6795;51.232;3.764;2023-05-23T08:39:37;8.68;;;1.02;;
13445;SDS011;6795;51.232;3.764;2023-05-23T08:42:06;7.22;;;1.27;;
13445;SDS011;6795;51.232;3.764;2023-05-23T08:44:35;7.03;;;1.02;;
13445;SDS011;6795;51.232;3.764;2023-05-23T08:47:06;6.65;;;0.88;;
13445;SDS011;6795;51.232;3.764;2023-05-23T08:49:36;4.38;;;0.65;;
13445;SDS011;6795;51.232;3.764;2023-05-23T08:52:06;8.10;;;1.45;;
13445;SDS011;6795;51.232;3.764;2023-05-23T08:54:42;8.70;;;1.05;;
13445;SDS011;6795;51.232;3.764;2023-05-23T08:57:11;8.00;;;1.10;;
13445;SDS011;6795;51.232;3.764;2023-05-23T08:59:40;8.05;;;1.25;;
13445;SDS011;6795;51.232;3.764;2023-05-23T09:02:09;9.85;;;1.10;;
13445;SDS011;6795;51.232;3.764;2023-05-23T09:04:38;12.50;;;1.75;;
13445;SDS011;6795;51.232;3.764;2023-05-23T09:07:08;10.18;;;1.20;;
13445;SDS011;6795;51.232;3.764;2023-05-23T09:09:38;8.88;;;1.20;;
13445;SDS011;6795;51.232;3.764;2023-05-23T09:12:06;8.32;;;1.55;;
13445;SDS011;6795;51.232;3.764;2023-05-23T09:14:35;11.45;;;1.63;;
13445;SDS011;6795;51.232;3.764;2023-05-23T09:17:04;8.18;;;1.52;;
13445;SDS011;6795;51.232;3.764;2023-05-23T09:19:32;7.45;;;0.68;;
13445;SDS011;6795;51.232;3.764;2023-05-23T09:22:01;6.28;;;0.60;;
13445;SDS011;6795;51.232;3.764;2023-05-23T09:24:34;15.38;;;2.08;;
13445;SDS011;6795;51.232;3.764;2023-05-23T09:27:04;17.13;;;2.13;;
13445;SDS011;6795;51.232;3.764;2023-05-23T09:29:35;20.52;;;2.83;;
13445;SDS011;6795;51.232;3.764;2023-05-23T09:32:11;7.13;;;1.60;;
13445;SDS011;6795;51.232;3.764;2023-05-23T09:34:41;9.75;;;1.52;;
13445;SDS011;6795;51.232;3.764;2023-05-23T09:37:12;7.97;;;1.55;;
13445;SDS011;6795;51.232;3.764;2023-05-23T09:39:48;11.80;;;2.45;;
13445;SDS011;6795;51.232;3.764;2023-05-23T09:42:20;12.40;;;1.83;;
13445;SDS011;6795;51.232;3.764;2023-05-23T09:44:49;8.13;;;1.33;;
13445;SDS011;6795;51.232;3.764;2023-05-23T09:47:17;13.30;;;1.58;;
13445;SDS011;6795;51.232;3.764;2023-05-23T09:49:46;9.60;;;2.30;;
13445;SDS011;6795;51.232;3.764;2023-05-23T09:52:15;9.43;;;1.77;;
13445;SDS011;6795;51.232;3.764;2023-05-23T09:54:45;11.18;;;1.70;;
13445;SDS011;6795;51.232;3.764;2023-05-23T09:57:16;15.00;;;2.80;;
13445;SDS011;6795;51.232;3.764;2023-05-23T09:59:51;10.18;;;1.23;;
13445;SDS011;6795;51.232;3.764;2023-05-23T10:02:28;8.38;;;1.55;;
13445;SDS011;6795;51.232;3.764;2023-05-23T10:05:22;10.52;;;1.80;;
13445;SDS011;6795;51.232;3.764;2023-05-23T10:08:00;14.30;;;2.13;;
13445;SDS011;6795;51.232;3.764;2023-05-23T10:10:34;4.70;;;0.85;;
13445;SDS011;6795;51.232;3.764;2023-05-23T10:13:03;7.03;;;1.45;;
13445;SDS011;6795;51.232;3.764;2023-05-23T10:15:36;11.45;;;1.55;;
13445;SDS011;6795;51.232;3.764;2023-05-23T10:18:10;5.13;;;1.33;;
13445;SDS011;6795;51.232;3.764;2023-05-23T10:20:41;4.68;;;0.80;;
13445;SDS011;6795;51.232;3.764;2023-05-23T10:23:11;17.75;;;2.08;;
13445;SDS011;6795;51.232;3.764;2023-05-23T10:25:42;11.50;;;1.90;;
13445;SDS011;6795;51.232;3.764;2023-05-23T10:28:11;9.85;;;1.40;;
13445;SDS011;6795;51.232;3.764;2023-05-23T10:30:41;14.27;;;1.33;;
13445;SDS011;6795;51.232;3.764;2023-05-23T10:33:11;13.23;;;1.75;;
13445;SDS011;6795;51.232;3.764;2023-05-23T10:35:46;9.63;;;1.60;;
13445;SDS011;6795;51.232;3.764;2023-05-23T10:38:25;6.18;;;1.02;;
13445;SDS011;6795;51.232;3.764;2023-05-23T10:41:05;12.35;;;1.85;;
13445;SDS011;6795;51.232;3.764;2023-05-23T10:43:43;11.52;;;2.25;;
13445;SDS011;6795;51.232;3.764;2023-05-23T10:46:18;11.70;;;1.40;;
13445;SDS011;6795;51.232;3.764;2023-05-23T10:48:51;9.75;;;1.40;;
13445;SDS011;6795;51.232;3.764;2023-05-23T10:51:23;9.30;;;1.70;;
13445;SDS011;6795;51.232;3.764;2023-05-23T10:53:52;4.50;;;0.60;;
13445;SDS011;6795;51.232;3.764;2023-05-23T10:56:23;7.70;;;0.98;;
13445;SDS011;6795;51.232;3.764;2023-05-23T10:58:54;6.05;;;1.35;;
13445;SDS011;6795;51.232;3.764;2023-05-23T11:01:24;10.40;;;1.48;;
13445;SDS011;6795;51.232;3.764;2023-05-23T11:03:54;9.68;;;1.63;;
13445;SDS011;6795;51.232;3.764;2023-05-23T11:06:29;12.07;;;1.38;;
13445;SDS011;6795;51.232;3.764;2023-05-23T11:09:03;8.45;;;1.23;;
13445;SDS011;6795;51.232;3.764;2023-05-23T11:14:32;9.13;;;1.35;;
13445;SDS011;6795;51.232;3.764;2023-05-23T11:17:31;9.25;;;1.17;;
13445;SDS011;6795;51.232;3.764;2023-05-23T11:20:02;15.57;;;1.85;;
13445;SDS011;6795;51.232;3.764;2023-05-23T11:22:33;13.70;;;1.60;;
13445;SDS011;6795;51.232;3.764;2023-05-23T11:25:05;6.30;;;0.80;;
13445;SDS011;6795;51.232;3.764;2023-05-23T11:27:37;12.05;;;2.00;;
13445;SDS011;6795;51.232;3.764;2023-05-23T11:30:08;10.23;;;1.60;;
13445;SDS011;6795;51.232;3.764;2023-05-23T11:32:39;6.43;;;1.02;;
13445;SDS011;6795;51.232;3.764;2023-05-23T11:35:09;10.98;;;1.23;;
13445;SDS011;6795;51.232;3.764;2023-05-23T11:37:38;6.10;;;0.88;;
13445;SDS011;6795;51.232;3.764;2023-05-23T11:40:28;6.78;;;1.13;;
13445;SDS011;6795;51.232;3.764;2023-05-23T11:43:01;10.25;;;1.17;;
13445;SDS011;6795;51.232;3.764;2023-05-23T11:45:31;8.05;;;1.27;;
13445;SDS011;6795;51.232;3.764;2023-05-23T11:48:04;8.25;;;1.25;;
13445;SDS011;6795;51.232;3.764;2023-05-23T11:50:34;7.70;;;0.85;;
13445;SDS011;6795;51.232;3.764;2023-05-23T11:53:11;7.07;;;1.10;;
13445;SDS011;6795;51.232;3.764;2023-05-23T11:55:47;11.48;;;1.42;;
13445;SDS011;6795;51.232;3.764;2023-05-23T11:58:17;6.95;;;1.08;;
13445;SDS011;6795;51.232;3.764;2023-05-23T12:00:47;8.93;;;1.45;;
13445;SDS011;6795;51.232;3.764;2023-05-23T12:03:15;4.80;;;1.25;;
13445;SDS011;6795;51.232;3.764;2023-05-23T12:05:44;5.45;;;0.70;;
13445;SDS011;6795;51.232;3.764;2023-05-23T12:08:13;12.27;;;1.13;;
13445;SDS011;6795;51.232;3.764;2023-05-23T12:10:48;10.30;;;1.00;;
13445;SDS011;6795;51.232;3.764;2023-05-23T12:13:19;5.38;;;1.00;;
13445;SDS011;6795;51.232;3.764;2023-05-23T12:15:54;12.52;;;1.15;;
13445;SDS011;6795;51.232;3.764;2023-05-23T12:18:26;14.00;;;1.60;;
13445;SDS011;6795;51.232;3.764;2023-05-23T12:20:58;12.50;;;2.33;;
13445;SDS011;6795;51.232;3.764;2023-05-23T12:23:28;9.05;;;0.93;;
13445;SDS011;6795;51.232;3.764;2023-05-23T12:26:02;7.28;;;1.67;;
13445;SDS011;6795;51.232;3.764;2023-05-23T12:28:37;9.13;;;1.00;;
13445;SDS011;6795;51.232;3.764;2023-05-23T12:31:08;7.43;;;1.25;;
13445;SDS011;6795;51.232;3.764;2023-05-23T12:33:39;7.32;;;0.93;;
13445;SDS011;6795;51.232;3.764;2023-05-23T12:36:09;11.68;;;1.88;;
13445;SDS011;6795;51.232;3.764;2023-05-23T12:38:38;10.48;;;1.35;;
13445;SDS011;6795;51.232;3.764;2023-05-23T12:41:11;9.48;;;1.17;;
13445;SDS011;6795;51.232;3.764;2023-05-23T12:43:49;10.90;;;1.45;;
13445;SDS011;6795;51.232;3.764;2023-05-23T12:46:19;7.47;;;1.02;;
13445;SDS011;6795;51.232;3.764;2023-05-23T12:48:49;9.02;;;1.60;;
13445;SDS011;6795;51.232;3.764;2023-05-23T12:51:18;5.78;;;0.88;;
13445;SDS011;6795;51.232;3.764;2023-05-23T12:53:47;8.88;;;1.45;;
13445;SDS011;6795;51.232;3.764;2023-05-23T12:56:16;5.78;;;0.98;;
13445;SDS011;6795;51.232;3.764;2023-05-23T12:58:44;7.97;;;0.65;;
13445;SDS011;6795;51.232;3.764;2023-05-23T13:01:15;13.30;;;1.67;;
13445;SDS011;6795;51.232;3.764;2023-05-23T13:03:43;14.80;;;1.95;;
13445;SDS011;6795;51.232;3.764;2023-05-23T13:06:12;6.15;;;1.08;;
13445;SDS011;6795;51.232;3.764;2023-05-23T13:08:40;6.90;;;0.90;;
13445;SDS011;6795;51.232;3.764;2023-05-23T13:11:09;4.57;;;1.10;;
13445;SDS011;6795;51.232;3.764;2023-05-23T13:13:38;2.45;;;0.43;;
13445;SDS011;6795;51.232;3.764;2023-05-23T13:16:06;6.18;;;0.80;;
13445;SDS011;6795;51.232;3.764;2023-05-23T13:18:37;5.20;;;1.13;;
13445;SDS011;6795;51.232;3.764;2023-05-23T13:21:06;5.53;;;1.10;;
13445;SDS011;6795;51.232;3.764;2023-05-23T13:23:34;7.75;;;0.73;;
13445;SDS011;6795;51.232;3.764;2023-05-23T13:26:04;5.13;;;0.75;;
13445;SDS011;6795;51.232;3.764;2023-05-23T13:28:33;5.00;;;1.05;;
13445;SDS011;6795;51.232;3.764;2023-05-23T13:31:01;6.85;;;0.88;;
13445;SDS011;6795;51.232;3.764;2023-05-23T13:33:30;8.38;;;1.38;;
13445;SDS011;6795;51.232;3.764;2023-05-23T13:36:00;4.72;;;0.95;;
13445;SDS011;6795;51.232;3.764;2023-05-23T13:38:28;11.05;;;1.08;;
13445;SDS011;6795;51.232;3.764;2023-05-23T13:40:59;11.25;;;1.98;;
13445;SDS011;6795;51.232;3.764;2023-05-23T13:43:28;5.95;;;1.40;;
13445;SDS011;6795;51.232;3.764;2023-05-23T13:45:56;5.60;;;0.85;;
13445;SDS011;6795;51.232;3.764;2023-05-23T13:48:26;3.92;;;0.80;;
13445;SDS011;6795;51.232;3.764;2023-05-23T13:50:55;4.20;;;0.60;;
13445;SDS011;6795;51.232;3.764;2023-05-23T13:53:24;7.47;;;1.02;;
13445;SDS011;6795;51.232;3.764;2023-05-23T13:55:53;8.45;;;1.17;;
13445;SDS011;6795;51.232;3.764;2023-05-23T13:58:21;8.05;;;0.88;;
13445;SDS011;6795;51.232;3.764;2023-05-23T14:00:50;8.13;;;1.08;;
13445;SDS011;6795;51.232;3.764;2023-05-23T14:03:20;6.88;;;1.63;;
13445;SDS011;6795;51.232;3.764;2023-05-23T14:05:50;6.05;;;1.00;;
13445;SDS011;6795;51.232;3.764;2023-05-23T14:08:18;5.65;;;0.77;;
13445;SDS011;6795;51.232;3.764;2023-05-23T14:10:48;8.85;;;1.13;;
13445;SDS011;6795;51.232;3.764;2023-05-23T14:13:18;6.03;;;0.68;;
13445;SDS011;6795;51.232;3.764;2023-05-23T14:15:47;5.60;;;0.65;;
13445;SDS011;6795;51.232;3.764;2023-05-23T14:18:16;7.80;;;0.80;;
13445;SDS011;6795;51.232;3.764;2023-05-23T14:20:45;7.15;;;1.05;;
13445;SDS011;6795;51.232;3.764;2023-05-23T14:23:13;9.88;;;1.27;;
13445;SDS011;6795;51.232;3.764;2023-05-23T14:25:42;5.07;;;0.80;;
13445;SDS011;6795;51.232;3.764;2023-05-23T14:28:13;2.40;;;1.23;;
13445;SDS011;6795;51.232;3.764;2023-05-23T14:30:42;10.27;;;1.58;;
13445;SDS011;6795;51.232;3.764;2023-05-23T14:33:11;14.68;;;1.65;;
13445;SDS011;6795;51.232;3.764;2023-05-23T14:35:40;10.57;;;1.60;;
13445;SDS011;6795;51.232;3.764;2023-05-23T14:38:09;10.75;;;0.88;;
13445;SDS011;6795;51.232;3.764;2023-05-23T14:40:38;8.40;;;1.63;;
13445;SDS011;6795;51.232;3.764;2023-05-23T14:43:06;6.35;;;1.20;;
13445;SDS011;6795;51.232;3.764;2023-05-23T14:45:36;9.98;;;1.05;;
13445;SDS011;6795;51.232;3.764;2023-05-23T14:48:05;7.47;;;0.82;;
13445;SDS011;6795;51.232;3.764;2023-05-23T14:50:34;6.80;;;0.70;;
13445;SDS011;6795;51.232;3.764;2023-05-23T14:53:02;6.72;;;1.00;;
13445;SDS011;6795;51.232;3.764;2023-05-23T14:55:31;8.55;;;1.52;;
13445;SDS011;6795;51.232;3.764;2023-05-23T14:57:59;9.07;;;0.80;;
13445;SDS011;6795;51.232;3.764;2023-05-23T15:00:29;6.40;;;1.23;;
13445;SDS011;6795;51.232;3.764;2023-05-23T15:02:59;3.15;;;0.45;;
13445;SDS011;6795;51.232;3.764;2023-05-23T15:05:27;14.45;;;1.58;;
13445;SDS011;6795;51.232;3.764;2023-05-23T15:07:56;7.32;;;0.95;;
13445;SDS011;6795;51.232;3.764;2023-05-23T15:10:24;8.10;;;0.77;;